Fort Lauderdale, FL

3:43 PM EDT on August 24, 2016 (GMT -0400)
Fort Lauderdale Executive | | Change Station

Elev 13 ft 26.20 °N, 80.18 °W | Updated 50 minutes ago

Scattered Clouds
Scattered Clouds
92 °F
Feels Like 101 °F
N
13
Wind Variable Wind from ENE

Today
High -- | Low -- °F
--% Chance of Precip.
Yesterday
High -- | Low -- °F
Precip. -- in
Pressure 30.03 in
Visibility 10.0 miles
Clouds Scattered Clouds 3000 ft
Heat Index 101 °F
Dew Point 74 °F
Humidity 55%
Rainfall 0.01 in
Snow Depth Not available.
6:57 AM 7:47 PM
Waning Gibbous, 54% visible
METAR KFXE 241853Z 06011KT 10SM SCT030 33/23 A3002 RMK AO2 SLP168 T03330233
Pressure 30.03 in
Visibility 10.0 miles
Clouds Scattered Clouds 3000 ft
Heat Index 101 °F
Dew Point 74 °F
Humidity 55%
Rainfall 0.01 in
Snow Depth Not available.
6:57 AM 7:47 PM
Waning Gibbous, 54% visible
METAR KFXE 241853Z 06011KT 10SM SCT030 33/23 A3002 RMK AO2 SLP168 T03330233
A tropical disturbance we've monitored since last week, may have a dangerous future in store for the southeast U.S. and Gulf coasts this weekend into next week. The National Weather Service has issued a flash flood watch for Puerto Rico and the U.S. Virgin Islands. Rainfall totals of 2-4 inches (locally higher) are expected through Wednesday night in those areas.

The National Hurricane Center says this system has a medium to high chance of development into a tropical depression or tropical storm over the next 2 to 5 days. A tight consensus of our guidance suggests the disturbance should continue in a general west or west-northwest trajectory the next several days.

10-Day Weather Forecast

Almanac

Astronomy

Aug. 24, 2016 Rise Set
Actual Time
Civil Twilight
Nautical Twilight
Astronomical Twilight
Moon
Length of Visible Light
Length of Day
Tomorrow will be .
, % of the Moon is Illuminated

Today's Extremes

State Highs State Lows

Community

WunderPhotos

Upload Photos

1,934,690 photos uploaded!

WunderBlog® & News

Nearby

Air Quality

  Air Quality AQ Index Pollutant
Not available.

Snow Depth

Station Depth Elevation

Earthquake Activity

City Distance Mag. Time & Date
Minimum magnitude displayed is 2.5.

Coastal Water Temperatures

Place Temperature

Stations

Nearby Weather Stations

Station Location Temp. Windchill Dew Point Humidity Wind Precip. Elev Updated Type
                   

Watches & Warnings

There are currently no watches in effect.